createdAt,value
2022-09-21T00:01:59.384Z,102126.91
2022-09-21T00:07:00.916Z,102135.31
2022-09-21T00:12:02.929Z,102145.13
2022-09-21T00:17:04.450Z,102140.66
2022-09-21T00:22:07.351Z,102140.78
2022-09-21T00:27:08.821Z,102136.84
2022-09-21T00:32:10.460Z,102139.16
2022-09-21T00:37:11.938Z,102142.25
2022-09-21T00:42:18.171Z,102140.56
2022-09-21T00:47:34.106Z,102142.06
2022-09-21T00:52:38.128Z,102145.97
2022-09-21T00:57:39.606Z,102142.91
2022-09-21T01:02:41.085Z,102149.19
2022-09-21T01:07:44.930Z,102145.09
2022-09-21T01:13:09.752Z,102147.53
2022-09-21T01:18:32.595Z,102140.78
2022-09-21T01:23:55.557Z,102144.72
2022-09-21T01:29:20.182Z,102139.88
2022-09-21T01:34:54.635Z,102134.66
2022-09-21T01:39:58.119Z,102139.41
2022-09-21T01:45:00.961Z,102144.22
2022-09-21T01:50:02.774Z,102140.53
2022-09-21T01:55:28.206Z,102137.47
2022-09-21T02:00:30.344Z,102148.47
2022-09-21T02:05:31.913Z,102140.28
2022-09-21T02:10:50.306Z,102139.31
2022-09-21T02:15:55.840Z,102142.81
2022-09-21T02:20:57.859Z,102132.84
2022-09-21T02:26:08.121Z,102146.88
2022-09-21T02:31:24.728Z,102144.72
2022-09-21T02:36:37.166Z,102144.31
2022-09-21T02:41:46.461Z,102148.97
2022-09-21T02:46:59.251Z,102155.09
2022-09-21T02:52:03.479Z,102142.44
2022-09-21T02:57:04.957Z,102144.16
2022-09-21T03:02:07.057Z,102144.91
2022-09-21T03:07:09.018Z,102146.22
2022-09-21T03:12:10.479Z,102146.53
2022-09-21T03:17:12.160Z,102149.66
2022-09-21T03:22:13.668Z,102152.38
2022-09-21T03:27:16.550Z,102156.47
2022-09-21T03:32:18.035Z,102148.22
2022-09-21T03:37:19.514Z,102156.72
2022-09-21T03:42:20.987Z,102158.75
2022-09-21T03:47:22.482Z,102160.22
2022-09-21T03:52:23.983Z,102168.44
2022-09-21T03:57:25.533Z,102164.91
2022-09-21T04:02:27.210Z,102158.53
2022-09-21T04:07:34.424Z,102169.06
2022-09-21T04:12:36.347Z,102168.22
2022-09-21T04:17:37.855Z,102160.41
2022-09-21T04:22:43.399Z,102164.78
2022-09-21T04:27:45.246Z,102166.44
2022-09-21T04:32:46.779Z,102167.94
2022-09-21T04:37:48.265Z,102166.00
2022-09-21T04:42:53.413Z,102171.63
2022-09-21T04:47:54.887Z,102170.00
2022-09-21T04:52:58.321Z,102170.47
2022-09-21T04:57:59.799Z,102184.66
2022-09-21T05:03:01.263Z,102175.44
2022-09-21T05:08:02.736Z,102181.53
2022-09-21T05:13:04.202Z,102175.31
2022-09-21T05:18:06.022Z,102176.47
2022-09-21T05:23:07.503Z,102189.97
2022-09-21T05:28:09.114Z,102188.13
2022-09-21T05:33:11.764Z,102181.88
2022-09-21T05:38:13.811Z,102192.97
2022-09-21T05:43:15.411Z,102189.84
2022-09-21T05:48:18.943Z,102195.09
2022-09-21T05:53:57.815Z,102188.06
2022-09-21T05:59:03.077Z,102195.00
2022-09-21T06:04:04.753Z,102195.31
2022-09-21T06:09:06.248Z,102195.94
2022-09-21T06:14:07.731Z,102202.91
2022-09-21T06:19:12.579Z,102200.81
2022-09-21T06:24:14.071Z,102210.69
2022-09-21T06:29:15.569Z,102211.66
2022-09-21T06:34:17.479Z,102209.75
2022-09-21T06:39:18.942Z,102212.50
2022-09-21T06:44:20.421Z,102205.88
2022-09-21T06:49:21.898Z,102207.94
2022-09-21T06:54:24.554Z,102207.69
2022-09-21T06:59:26.024Z,102202.34
2022-09-21T07:04:29.129Z,102209.28
2022-09-21T07:14:52.443Z,102209.50
2022-09-21T07:19:53.912Z,102196.56
2022-09-21T07:24:55.491Z,102208.75
2022-09-21T07:29:56.995Z,102210.69
2022-09-21T07:34:58.480Z,102211.03
2022-09-21T07:40:02.749Z,102212.69
2022-09-21T07:45:05.012Z,102218.75
2022-09-21T07:50:06.729Z,102216.38
2022-09-21T07:55:08.447Z,102214.81
2022-09-21T08:00:10.589Z,102217.16
2022-09-21T08:05:12.100Z,102219.84
2022-09-21T08:10:13.592Z,102222.34
2022-09-21T08:15:37.103Z,102231.34
2022-09-21T08:20:36.642Z,102225.78
2022-09-21T08:25:38.124Z,102232.81
2022-09-21T08:30:39.595Z,102226.50
2022-09-21T08:35:41.079Z,102227.19
2022-09-21T08:40:42.660Z,102244.91
2022-09-21T08:45:44.853Z,102245.47
2022-09-21T08:50:46.700Z,102251.91
2022-09-21T08:55:48.192Z,102238.13
2022-09-21T09:01:14.387Z,102240.13
2022-09-21T09:06:26.744Z,102230.94
2022-09-21T09:11:44.184Z,102250.22
2022-09-21T09:16:54.299Z,102250.53
2022-09-21T09:21:56.223Z,102255.44
2022-09-21T09:27:02.226Z,102252.22
2022-09-21T09:32:03.762Z,102253.19
2022-09-21T09:37:13.062Z,102249.75
2022-09-21T09:42:25.148Z,102259.69
2022-09-21T09:47:44.924Z,102251.63
2022-09-21T09:52:46.692Z,102264.28
2022-09-21T09:57:48.197Z,102249.34
2022-09-21T10:02:51.403Z,102249.06
2022-09-21T10:07:53.183Z,102259.72
2022-09-21T10:12:55.362Z,102251.63
2022-09-21T10:18:07.737Z,102251.75
2022-09-21T10:23:09.864Z,102253.81
2022-09-21T10:28:12.051Z,102248.25
2022-09-21T10:33:20.271Z,102241.22
2022-09-21T10:38:27.420Z,102242.38
2022-09-21T10:43:39.878Z,102248.16
2022-09-21T10:48:47.539Z,102254.91
2022-09-21T10:53:53.883Z,102257.28
2022-09-21T10:59:24.811Z,102240.56
2022-09-21T11:04:41.201Z,102239.81
2022-09-21T11:09:56.912Z,102242.91
2022-09-21T11:15:20.020Z,102250.06
2022-09-21T11:20:42.585Z,102249.97
2022-09-21T11:25:49.639Z,102244.56
2022-09-21T11:31:05.143Z,102246.63
2022-09-21T11:36:53.052Z,102247.22
2022-09-21T11:42:27.162Z,102240.50
2022-09-21T11:47:50.227Z,102238.63
2022-09-21T11:53:17.448Z,102241.91
2022-09-21T11:58:23.284Z,102230.16
2022-09-21T12:03:30.837Z,102240.44
2022-09-21T12:08:48.693Z,102240.00
2022-09-21T12:14:08.027Z,102232.06
2022-09-21T12:19:40.299Z,102228.75
2022-09-21T12:24:47.942Z,102230.25
2022-09-21T12:29:53.219Z,102229.53
2022-09-21T12:35:00.612Z,102224.41
2022-09-21T12:40:17.976Z,102219.09
2022-09-21T12:45:40.471Z,102219.69
2022-09-21T12:50:48.303Z,102214.56
2022-09-21T12:56:09.640Z,102220.19
2022-09-21T13:01:41.955Z,102215.13
2022-09-21T13:07:14.607Z,102219.22
2022-09-21T13:12:19.011Z,102219.13
2022-09-21T13:17:25.110Z,102215.59
2022-09-21T13:22:27.325Z,102210.53
2022-09-21T13:28:00.560Z,102211.66
2022-09-21T13:33:03.691Z,102209.78
2022-09-21T13:38:44.231Z,102210.31
2022-09-21T13:43:50.443Z,102210.22
2022-09-21T13:48:53.154Z,102202.63
2022-09-21T13:53:56.660Z,102198.28
2022-09-21T13:58:58.149Z,102203.72
2022-09-21T14:04:21.088Z,102200.19
2022-09-21T14:09:28.551Z,102195.84
2022-09-21T14:14:37.326Z,102188.56
2022-09-21T14:19:38.647Z,102189.94
2022-09-21T14:24:44.815Z,102179.47
2022-09-21T14:29:53.007Z,102175.03
2022-09-21T14:34:57.102Z,102164.88
2022-09-21T14:39:59.037Z,102172.00
2022-09-21T14:45:02.075Z,102162.03
2022-09-21T14:50:45.538Z,102167.72
2022-09-21T14:56:22.390Z,102160.00
2022-09-21T15:01:33.912Z,102153.53
2022-09-21T15:07:00.404Z,102146.94
2022-09-21T15:12:09.361Z,102151.97
2022-09-21T15:17:28.700Z,102146.13
2022-09-21T15:22:31.854Z,102139.41
2022-09-21T15:27:33.729Z,102138.72
2022-09-21T15:32:36.277Z,102134.25
2022-09-21T15:37:39.544Z,102136.94
2022-09-21T15:43:00.850Z,102137.53
2022-09-21T15:48:02.200Z,102124.47
2022-09-21T15:53:05.640Z,102120.78
2022-09-21T15:58:20.747Z,102119.66
2022-09-21T16:03:23.235Z,102118.31
2022-09-21T16:08:30.134Z,102110.31
2022-09-21T16:13:50.718Z,102114.63
2022-09-21T16:18:55.125Z,102115.66
2022-09-21T16:23:57.328Z,102115.56
2022-09-21T16:29:17.768Z,102112.34
2022-09-21T16:34:21.744Z,102118.28
2022-09-21T16:39:23.779Z,102127.16
2022-09-21T16:44:25.773Z,102128.09
2022-09-21T16:49:33.574Z,102120.59
2022-09-21T16:54:37.430Z,102123.94
2022-09-21T16:59:38.923Z,102124.69
2022-09-21T17:04:40.435Z,102122.44
2022-09-21T17:09:47.645Z,102130.34
2022-09-21T17:14:51.547Z,102120.66
2022-09-21T17:19:53.682Z,102119.66
2022-09-21T17:24:55.158Z,102115.59
2022-09-21T17:29:57.029Z,102114.03
2022-09-21T17:35:01.602Z,102118.56
2022-09-21T17:40:09.878Z,102122.34
2022-09-21T17:45:30.611Z,102122.34
2022-09-21T17:50:32.235Z,102122.84
2022-09-21T17:55:33.890Z,102123.38
2022-09-21T18:01:00.715Z,102119.41
2022-09-21T18:06:02.315Z,102124.50
2022-09-21T18:11:19.022Z,102129.13
2022-09-21T18:16:27.634Z,102123.72
2022-09-21T18:21:29.130Z,102117.78
2022-09-21T18:26:30.908Z,102132.03
2022-09-21T18:31:43.757Z,102131.38
2022-09-21T18:36:48.550Z,102137.56
2022-09-21T18:42:05.879Z,102139.19
2022-09-21T18:47:15.588Z,102141.69
2022-09-21T18:52:38.938Z,102144.56
2022-09-21T18:57:40.692Z,102147.19
2022-09-21T19:02:58.952Z,102142.22
2022-09-21T19:08:10.531Z,102143.53
2022-09-21T19:13:27.316Z,102138.28
2022-09-21T19:18:53.920Z,102142.13
2022-09-21T19:24:19.883Z,102150.81
2022-09-21T19:29:51.070Z,102152.16
2022-09-21T19:34:52.672Z,102144.72
2022-09-21T19:39:54.231Z,102154.97
2022-09-21T19:45:15.930Z,102157.56
2022-09-21T19:50:18.275Z,102146.94
2022-09-21T19:55:39.424Z,102159.75
2022-09-21T20:00:41.100Z,102164.72
2022-09-21T20:06:05.675Z,102165.31
2022-09-21T20:11:25.328Z,102166.75
2022-09-21T20:16:40.567Z,102158.28
2022-09-21T20:21:42.516Z,102160.91
2022-09-21T20:26:44.073Z,102155.16
2022-09-21T20:31:47.351Z,102159.69
2022-09-21T20:36:48.821Z,102165.56
2022-09-21T20:41:50.287Z,102151.81
2022-09-21T20:46:51.759Z,102153.28
2022-09-21T20:51:53.227Z,102150.19
2022-09-21T20:56:54.701Z,102146.13
2022-09-21T21:01:56.237Z,102146.38
2022-09-21T21:06:57.735Z,102149.47
2022-09-21T21:11:59.326Z,102147.34
2022-09-21T21:17:02.349Z,102148.63
2022-09-21T21:22:03.925Z,102154.22
2022-09-21T21:27:05.898Z,102147.34
2022-09-21T21:32:07.416Z,102147.75
2022-09-21T21:37:09.546Z,102152.50
2022-09-21T21:42:11.030Z,102150.28
2022-09-21T21:47:38.097Z,102142.88
2022-09-21T21:52:34.514Z,102141.03
2022-09-21T21:57:35.984Z,102130.09
2022-09-21T22:02:37.596Z,102137.69
2022-09-21T22:07:39.959Z,102138.84
2022-09-21T22:12:44.985Z,102139.47
2022-09-21T22:17:46.577Z,102139.97
2022-09-21T22:22:48.481Z,102133.84
2022-09-21T22:27:49.948Z,102134.69
2022-09-21T22:32:51.680Z,102132.13
2022-09-21T22:37:54.503Z,102134.16
2022-09-21T22:42:55.954Z,102136.53
2022-09-21T22:47:57.437Z,102141.94
2022-09-21T22:52:58.904Z,102134.28
2022-09-21T22:58:00.587Z,102129.03
2022-09-21T23:03:02.185Z,102131.91
2022-09-21T23:08:03.745Z,102128.75
2022-09-21T23:13:05.719Z,102134.03
2022-09-21T23:18:07.193Z,102111.75
2022-09-21T23:23:08.915Z,102119.34
2022-09-21T23:28:10.464Z,102111.25
2022-09-21T23:33:11.938Z,102109.75
2022-09-21T23:38:13.475Z,102111.06
2022-09-21T23:43:14.972Z,102100.84
2022-09-21T23:48:16.442Z,102112.47
2022-09-21T23:53:17.960Z,102107.75
2022-09-21T23:58:19.641Z,102106.13
